sensor_id;sensor_type;location;lat;lon;timestamp;temperature;humidity
52859;DHT22;38721;53.098;6.596;2023-08-01T00:01:35;16.50;99.90
52859;DHT22;38721;53.098;6.596;2023-08-01T00:04:04;16.40;99.90
52859;DHT22;38721;53.098;6.596;2023-08-01T00:06:29;16.50;99.90
52859;DHT22;38721;53.098;6.596;2023-08-01T00:08:55;16.50;99.90
52859;DHT22;38721;53.098;6.596;2023-08-01T00:11:20;16.50;99.90
52859;DHT22;38721;53.098;6.596;2023-08-01T00:13:46;16.50;99.90
52859;DHT22;38721;53.098;6.596;2023-08-01T00:16:12;16.50;99.90
52859;DHT22;38721;53.098;6.596;2023-08-01T00:18:37;16.50;99.90
52859;DHT22;38721;53.098;6.596;2023-08-01T00:21:03;16.50;99.90
52859;DHT22;38721;53.098;6.596;2023-08-01T00:23:31;16.40;99.90
52859;DHT22;38721;53.098;6.596;2023-08-01T00:25:57;16.40;99.90
52859;DHT22;38721;53.098;6.596;2023-08-01T00:28:23;16.40;99.90
52859;DHT22;38721;53.098;6.596;2023-08-01T00:30:48;16.40;99.90
52859;DHT22;38721;53.098;6.596;2023-08-01T00:33:14;16.40;99.90
52859;DHT22;38721;53.098;6.596;2023-08-01T00:35:40;16.20;99.90
52859;DHT22;38721;53.098;6.596;2023-08-01T00:38:06;16.10;99.90
52859;DHT22;38721;53.098;6.596;2023-08-01T00:40:35;16.10;99.90
52859;DHT22;38721;53.098;6.596;2023-08-01T00:43:01;16.00;99.90
52859;DHT22;38721;53.098;6.596;2023-08-01T00:45:27;16.00;99.90
52859;DHT22;38721;53.098;6.596;2023-08-01T00:47:54;16.00;99.90
52859;DHT22;38721;53.098;6.596;2023-08-01T00:50:20;15.90;99.90
52859;DHT22;38721;53.098;6.596;2023-08-01T00:52:48;15.90;99.90
52859;DHT22;38721;53.098;6.596;2023-08-01T00:55:15;15.90;99.90
52859;DHT22;38721;53.098;6.596;2023-08-01T00:57:41;15.90;99.90
52859;DHT22;38721;53.098;6.596;2023-08-01T01:00:08;15.90;99.90
52859;DHT22;38721;53.098;6.596;2023-08-01T01:02:34;15.90;99.90
52859;DHT22;38721;53.098;6.596;2023-08-01T01:05:01;15.90;99.90
52859;DHT22;38721;53.098;6.596;2023-08-01T01:07:30;15.90;99.90
52859;DHT22;38721;53.098;6.596;2023-08-01T01:09:58;15.80;99.90
52859;DHT22;38721;53.098;6.596;2023-08-01T01:12:24;15.80;99.90
52859;DHT22;38721;53.098;6.596;2023-08-01T01:14:49;15.80;99.90
52859;DHT22;38721;53.098;6.596;2023-08-01T01:17:15;15.90;99.90
52859;DHT22;38721;53.098;6.596;2023-08-01T01:19:41;15.90;99.90
52859;DHT22;38721;53.098;6.596;2023-08-01T01:22:08;15.80;99.90
52859;DHT22;38721;53.098;6.596;2023-08-01T01:24:36;15.80;99.90
52859;DHT22;38721;53.098;6.596;2023-08-01T01:27:03;15.80;99.90
52859;DHT22;38721;53.098;6.596;2023-08-01T01:29:31;15.70;99.90
52859;DHT22;38721;53.098;6.596;2023-08-01T01:31:59;15.70;99.90
52859;DHT22;38721;53.098;6.596;2023-08-01T01:34:29;15.70;99.90
52859;DHT22;38721;53.098;6.596;2023-08-01T01:36:55;15.70;99.90
52859;DHT22;38721;53.098;6.596;2023-08-01T01:39:21;15.60;99.90
52859;DHT22;38721;53.098;6.596;2023-08-01T01:41:46;15.60;99.90
52859;DHT22;38721;53.098;6.596;2023-08-01T01:44:12;15.60;99.90
52859;DHT22;38721;53.098;6.596;2023-08-01T01:46:38;15.60;99.90
52859;DHT22;38721;53.098;6.596;2023-08-01T01:49:03;15.60;99.90
52859;DHT22;38721;53.098;6.596;2023-08-01T01:51:32;15.60;99.90
52859;DHT22;38721;53.098;6.596;2023-08-01T01:53:57;15.50;99.90
52859;DHT22;38721;53.098;6.596;2023-08-01T01:56:23;15.50;99.90
52859;DHT22;38721;53.098;6.596;2023-08-01T01:58:48;15.50;99.90
52859;DHT22;38721;53.098;6.596;2023-08-01T02:01:14;15.50;99.90
52859;DHT22;38721;53.098;6.596;2023-08-01T02:03:40;15.50;99.90
52859;DHT22;38721;53.098;6.596;2023-08-01T02:06:05;15.40;99.90
52859;DHT22;38721;53.098;6.596;2023-08-01T02:08:31;15.40;99.90
52859;DHT22;38721;53.098;6.596;2023-08-01T02:11:00;15.40;99.90
52859;DHT22;38721;53.098;6.596;2023-08-01T02:13:27;15.30;99.90
52859;DHT22;38721;53.098;6.596;2023-08-01T02:15:53;15.30;99.90
52859;DHT22;38721;53.098;6.596;2023-08-01T02:18:19;15.20;99.90
52859;DHT22;38721;53.098;6.596;2023-08-01T02:20:45;15.20;99.90
52859;DHT22;38721;53.098;6.596;2023-08-01T02:23:10;15.10;99.90
52859;DHT22;38721;53.098;6.596;2023-08-01T02:25:40;15.10;99.90
52859;DHT22;38721;53.098;6.596;2023-08-01T02:28:06;15.00;99.90
52859;DHT22;38721;53.098;6.596;2023-08-01T02:30:32;15.00;99.90
52859;DHT22;38721;53.098;6.596;2023-08-01T02:32:58;15.00;99.90
52859;DHT22;38721;53.098;6.596;2023-08-01T02:35:23;14.90;99.90
52859;DHT22;38721;53.098;6.596;2023-08-01T02:37:49;14.90;99.90
52859;DHT22;38721;53.098;6.596;2023-08-01T02:40:14;14.80;99.90
52859;DHT22;38721;53.098;6.596;2023-08-01T02:42:40;14.80;99.90
52859;DHT22;38721;53.098;6.596;2023-08-01T02:45:06;14.80;99.90
52859;DHT22;38721;53.098;6.596;2023-08-01T02:47:32;14.80;99.90
52859;DHT22;38721;53.098;6.596;2023-08-01T02:49:57;14.80;99.90
52859;DHT22;38721;53.098;6.596;2023-08-01T02:52:23;14.70;99.90
52859;DHT22;38721;53.098;6.596;2023-08-01T02:54:49;14.70;99.90
52859;DHT22;38721;53.098;6.596;2023-08-01T02:57:15;14.70;99.90
52859;DHT22;38721;53.098;6.596;2023-08-01T02:59:40;14.80;99.90
52859;DHT22;38721;53.098;6.596;2023-08-01T03:02:06;14.70;99.90
52859;DHT22;38721;53.098;6.596;2023-08-01T03:04:31;14.70;99.90
52859;DHT22;38721;53.098;6.596;2023-08-01T03:06:57;14.70;99.90
52859;DHT22;38721;53.098;6.596;2023-08-01T03:09:23;14.80;99.90
52859;DHT22;38721;53.098;6.596;2023-08-01T03:11:48;14.90;99.90
52859;DHT22;38721;53.098;6.596;2023-08-01T03:14:14;14.90;99.90
52859;DHT22;38721;53.098;6.596;2023-08-01T03:16:40;15.00;99.90
52859;DHT22;38721;53.098;6.596;2023-08-01T03:19:05;15.00;99.90
52859;DHT22;38721;53.098;6.596;2023-08-01T03:21:32;15.00;99.90
52859;DHT22;38721;53.098;6.596;2023-08-01T03:23:58;15.10;99.90
52859;DHT22;38721;53.098;6.596;2023-08-01T03:26:24;15.10;99.90
52859;DHT22;38721;53.098;6.596;2023-08-01T03:28:49;15.20;99.90
52859;DHT22;38721;53.098;6.596;2023-08-01T03:31:15;15.20;99.90
52859;DHT22;38721;53.098;6.596;2023-08-01T03:33:41;15.20;99.90
52859;DHT22;38721;53.098;6.596;2023-08-01T03:36:06;15.30;99.90
52859;DHT22;38721;53.098;6.596;2023-08-01T03:38:32;15.30;99.90
52859;DHT22;38721;53.098;6.596;2023-08-01T03:40:58;15.30;99.90
52859;DHT22;38721;53.098;6.596;2023-08-01T03:43:24;15.30;99.90
52859;DHT22;38721;53.098;6.596;2023-08-01T03:45:51;15.40;99.90
52859;DHT22;38721;53.098;6.596;2023-08-01T03:48:16;15.40;99.90
52859;DHT22;38721;53.098;6.596;2023-08-01T03:50:42;15.40;99.90
52859;DHT22;38721;53.098;6.596;2023-08-01T03:53:07;15.40;99.90
52859;DHT22;38721;53.098;6.596;2023-08-01T03:55:33;15.40;99.90
52859;DHT22;38721;53.098;6.596;2023-08-01T03:57:59;15.40;99.90
52859;DHT22;38721;53.098;6.596;2023-08-01T04:00:24;15.30;99.90
52859;DHT22;38721;53.098;6.596;2023-08-01T04:02:50;15.40;99.90
52859;DHT22;38721;53.098;6.596;2023-08-01T04:05:16;15.40;99.90
52859;DHT22;38721;53.098;6.596;2023-08-01T04:07:48;15.40;99.90
52859;DHT22;38721;53.098;6.596;2023-08-01T04:10:16;15.40;99.90
52859;DHT22;38721;53.098;6.596;2023-08-01T04:12:42;15.40;99.90
52859;DHT22;38721;53.098;6.596;2023-08-01T04:15:09;15.40;99.90
52859;DHT22;38721;53.098;6.596;2023-08-01T04:17:34;15.40;99.90
52859;DHT22;38721;53.098;6.596;2023-08-01T04:20:00;15.40;99.90
52859;DHT22;38721;53.098;6.596;2023-08-01T04:22:26;15.30;99.90
52859;DHT22;38721;53.098;6.596;2023-08-01T04:24:51;15.40;99.90
52859;DHT22;38721;53.098;6.596;2023-08-01T04:27:17;15.40;99.90
52859;DHT22;38721;53.098;6.596;2023-08-01T04:29:42;15.40;99.90
52859;DHT22;38721;53.098;6.596;2023-08-01T04:32:08;15.40;99.90
52859;DHT22;38721;53.098;6.596;2023-08-01T04:34:34;15.40;99.90
52859;DHT22;38721;53.098;6.596;2023-08-01T04:36:59;15.40;99.90
52859;DHT22;38721;53.098;6.596;2023-08-01T04:39:25;15.40;99.90
52859;DHT22;38721;53.098;6.596;2023-08-01T04:41:51;15.40;99.90
52859;DHT22;38721;53.098;6.596;2023-08-01T04:44:16;15.30;99.90
52859;DHT22;38721;53.098;6.596;2023-08-01T04:46:42;15.30;99.90
52859;DHT22;38721;53.098;6.596;2023-08-01T04:49:08;15.20;99.90
52859;DHT22;38721;53.098;6.596;2023-08-01T04:51:33;15.20;99.90
52859;DHT22;38721;53.098;6.596;2023-08-01T04:53:59;15.20;99.90
52859;DHT22;38721;53.098;6.596;2023-08-01T04:56:24;15.20;99.90
52859;DHT22;38721;53.098;6.596;2023-08-01T04:58:50;15.20;99.90
52859;DHT22;38721;53.098;6.596;2023-08-01T05:01:16;15.30;99.90
52859;DHT22;38721;53.098;6.596;2023-08-01T05:03:41;15.30;99.90
52859;DHT22;38721;53.098;6.596;2023-08-01T05:06:10;15.40;99.90
52859;DHT22;38721;53.098;6.596;2023-08-01T05:08:35;15.40;99.90
52859;DHT22;38721;53.098;6.596;2023-08-01T05:11:01;15.50;99.90
52859;DHT22;38721;53.098;6.596;2023-08-01T05:13:26;15.60;99.90
52859;DHT22;38721;53.098;6.596;2023-08-01T05:15:52;15.60;99.90
52859;DHT22;38721;53.098;6.596;2023-08-01T05:18:18;15.80;99.90
52859;DHT22;38721;53.098;6.596;2023-08-01T05:20:43;16.00;99.90
52859;DHT22;38721;53.098;6.596;2023-08-01T05:23:09;16.00;99.90
52859;DHT22;38721;53.098;6.596;2023-08-01T05:25:35;16.10;99.90
52859;DHT22;38721;53.098;6.596;2023-08-01T05:28:00;16.10;99.90
52859;DHT22;38721;53.098;6.596;2023-08-01T05:30:26;16.00;99.90
52859;DHT22;38721;53.098;6.596;2023-08-01T05:32:52;16.00;99.90
52859;DHT22;38721;53.098;6.596;2023-08-01T05:35:19;15.80;99.90
52859;DHT22;38721;53.098;6.596;2023-08-01T05:37:45;16.00;99.90
52859;DHT22;38721;53.098;6.596;2023-08-01T05:40:11;16.10;99.90
52859;DHT22;38721;53.098;6.596;2023-08-01T05:42:36;16.10;99.90
52859;DHT22;38721;53.098;6.596;2023-08-01T05:45:02;16.30;99.90
52859;DHT22;38721;53.098;6.596;2023-08-01T05:47:31;16.30;99.90
52859;DHT22;38721;53.098;6.596;2023-08-01T05:49:57;16.30;99.90
52859;DHT22;38721;53.098;6.596;2023-08-01T05:52:23;16.50;99.90
52859;DHT22;38721;53.098;6.596;2023-08-01T05:54:49;16.60;99.90
52859;DHT22;38721;53.098;6.596;2023-08-01T05:57:15;16.60;99.90
52859;DHT22;38721;53.098;6.596;2023-08-01T05:59:41;16.70;99.90
52859;DHT22;38721;53.098;6.596;2023-08-01T06:02:06;16.70;99.90
52859;DHT22;38721;53.098;6.596;2023-08-01T06:04:32;16.90;99.90
52859;DHT22;38721;53.098;6.596;2023-08-01T06:06:58;17.00;99.90
52859;DHT22;38721;53.098;6.596;2023-08-01T06:09:24;16.80;99.90
52859;DHT22;38721;53.098;6.596;2023-08-01T06:11:50;16.80;99.90
52859;DHT22;38721;53.098;6.596;2023-08-01T06:14:16;16.80;99.90
52859;DHT22;38721;53.098;6.596;2023-08-01T06:16:42;16.70;99.90
52859;DHT22;38721;53.098;6.596;2023-08-01T06:19:08;16.70;99.90
52859;DHT22;38721;53.098;6.596;2023-08-01T06:21:33;16.70;99.90
52859;DHT22;38721;53.098;6.596;2023-08-01T06:23:59;16.60;99.90
52859;DHT22;38721;53.098;6.596;2023-08-01T06:26:28;16.50;99.90
52859;DHT22;38721;53.098;6.596;2023-08-01T06:28:53;16.40;99.90
52859;DHT22;38721;53.098;6.596;2023-08-01T06:31:22;16.40;99.90
52859;DHT22;38721;53.098;6.596;2023-08-01T06:33:48;16.20;99.90
52859;DHT22;38721;53.098;6.596;2023-08-01T06:36:14;16.30;99.90
52859;DHT22;38721;53.098;6.596;2023-08-01T06:38:42;16.40;99.90
52859;DHT22;38721;53.098;6.596;2023-08-01T06:41:07;16.40;99.90
52859;DHT22;38721;53.098;6.596;2023-08-01T06:43:33;16.50;99.90
52859;DHT22;38721;53.098;6.596;2023-08-01T06:45:59;16.60;99.90
52859;DHT22;38721;53.098;6.596;2023-08-01T06:48:24;16.60;99.90
52859;DHT22;38721;53.098;6.596;2023-08-01T06:50:50;16.70;99.90
52859;DHT22;38721;53.098;6.596;2023-08-01T06:53:16;16.70;99.90
52859;DHT22;38721;53.098;6.596;2023-08-01T06:55:42;16.80;99.90
52859;DHT22;38721;53.098;6.596;2023-08-01T06:58:08;16.90;99.90
52859;DHT22;38721;53.098;6.596;2023-08-01T07:00:37;16.90;99.90
52859;DHT22;38721;53.098;6.596;2023-08-01T07:03:02;17.20;99.90
52859;DHT22;38721;53.098;6.596;2023-08-01T07:05:28;17.30;99.90
52859;DHT22;38721;53.098;6.596;2023-08-01T07:07:54;17.40;99.90
52859;DHT22;38721;53.098;6.596;2023-08-01T07:10:20;17.40;99.90
52859;DHT22;38721;53.098;6.596;2023-08-01T07:12:46;17.40;99.90
52859;DHT22;38721;53.098;6.596;2023-08-01T07:15:11;17.70;99.90
52859;DHT22;38721;53.098;6.596;2023-08-01T07:17:40;17.60;99.90
52859;DHT22;38721;53.098;6.596;2023-08-01T07:20:09;17.50;99.90
52859;DHT22;38721;53.098;6.596;2023-08-01T07:22:37;17.40;99.90
52859;DHT22;38721;53.098;6.596;2023-08-01T07:25:03;17.30;99.90
52859;DHT22;38721;53.098;6.596;2023-08-01T07:27:29;17.30;99.90
52859;DHT22;38721;53.098;6.596;2023-08-01T07:29:55;17.10;99.90
52859;DHT22;38721;53.098;6.596;2023-08-01T07:32:23;17.00;99.90
52859;DHT22;38721;53.098;6.596;2023-08-01T07:34:48;17.10;99.90
52859;DHT22;38721;53.098;6.596;2023-08-01T07:37:14;17.10;99.90
52859;DHT22;38721;53.098;6.596;2023-08-01T07:39:40;17.10;99.90
52859;DHT22;38721;53.098;6.596;2023-08-01T07:42:05;17.10;99.90
52859;DHT22;38721;53.098;6.596;2023-08-01T07:44:31;17.00;99.90
52859;DHT22;38721;53.098;6.596;2023-08-01T07:46:57;17.00;99.90
52859;DHT22;38721;53.098;6.596;2023-08-01T07:49:23;17.00;99.90
52859;DHT22;38721;53.098;6.596;2023-08-01T07:51:49;17.00;99.90
52859;DHT22;38721;53.098;6.596;2023-08-01T07:54:14;16.80;99.90
52859;DHT22;38721;53.098;6.596;2023-08-01T07:56:40;16.60;99.90
52859;DHT22;38721;53.098;6.596;2023-08-01T07:59:06;16.60;99.90
52859;DHT22;38721;53.098;6.596;2023-08-01T08:01:31;16.50;99.90
52859;DHT22;38721;53.098;6.596;2023-08-01T08:03:57;16.60;99.90
52859;DHT22;38721;53.098;6.596;2023-08-01T08:06:23;16.70;99.90
52859;DHT22;38721;53.098;6.596;2023-08-01T08:08:49;16.80;99.90
52859;DHT22;38721;53.098;6.596;2023-08-01T08:11:15;17.10;99.90
52859;DHT22;38721;53.098;6.596;2023-08-01T08:13:42;17.40;99.90
52859;DHT22;38721;53.098;6.596;2023-08-01T08:16:07;17.20;99.90
52859;DHT22;38721;53.098;6.596;2023-08-01T08:18:33;17.10;99.90
52859;DHT22;38721;53.098;6.596;2023-08-01T08:20:59;17.10;99.90
52859;DHT22;38721;53.098;6.596;2023-08-01T08:23:24;17.00;99.90
52859;DHT22;38721;53.098;6.596;2023-08-01T08:25:50;16.90;99.90
52859;DHT22;38721;53.098;6.596;2023-08-01T08:28:28;16.80;99.90
52859;DHT22;38721;53.098;6.596;2023-08-01T08:30:55;16.80;99.90
52859;DHT22;38721;53.098;6.596;2023-08-01T08:33:20;16.60;99.90
52859;DHT22;38721;53.098;6.596;2023-08-01T08:35:47;16.70;99.90
52859;DHT22;38721;53.098;6.596;2023-08-01T08:38:13;16.40;99.90
52859;DHT22;38721;53.098;6.596;2023-08-01T08:40:41;16.60;99.90
52859;DHT22;38721;53.098;6.596;2023-08-01T08:43:10;16.50;99.90
52859;DHT22;38721;53.098;6.596;2023-08-01T08:45:40;16.60;99.90
52859;DHT22;38721;53.098;6.596;2023-08-01T08:48:11;16.50;99.90
52859;DHT22;38721;53.098;6.596;2023-08-01T08:50:38;16.50;99.90
52859;DHT22;38721;53.098;6.596;2023-08-01T08:53:05;16.60;99.90
52859;DHT22;38721;53.098;6.596;2023-08-01T08:55:41;16.70;99.90
52859;DHT22;38721;53.098;6.596;2023-08-01T08:58:07;16.60;99.90
52859;DHT22;38721;53.098;6.596;2023-08-01T09:00:35;16.80;99.90
52859;DHT22;38721;53.098;6.596;2023-08-01T09:03:01;17.20;99.90
52859;DHT22;38721;53.098;6.596;2023-08-01T09:05:27;17.30;99.90
52859;DHT22;38721;53.098;6.596;2023-08-01T09:07:57;17.30;99.90
52859;DHT22;38721;53.098;6.596;2023-08-01T09:10:24;17.40;99.90
52859;DHT22;38721;53.098;6.596;2023-08-01T09:12:52;17.40;99.90
52859;DHT22;38721;53.098;6.596;2023-08-01T09:15:18;17.90;99.90
52859;DHT22;38721;53.098;6.596;2023-08-01T09:17:49;18.10;99.90
52859;DHT22;38721;53.098;6.596;2023-08-01T09:20:14;18.00;99.90
52859;DHT22;38721;53.098;6.596;2023-08-01T09:22:44;17.90;99.90
52859;DHT22;38721;53.098;6.596;2023-08-01T09:25:11;17.90;99.90
52859;DHT22;38721;53.098;6.596;2023-08-01T09:27:37;17.50;99.90
52859;DHT22;38721;53.098;6.596;2023-08-01T09:30:20;17.20;99.90
52859;DHT22;38721;53.098;6.596;2023-08-01T09:32:56;17.50;99.90
52859;DHT22;38721;53.098;6.596;2023-08-01T09:35:22;17.20;99.90
52859;DHT22;38721;53.098;6.596;2023-08-01T09:37:48;17.30;99.90
52859;DHT22;38721;53.098;6.596;2023-08-01T09:40:14;17.50;99.90
52859;DHT22;38721;53.098;6.596;2023-08-01T09:42:41;17.80;99.90
52859;DHT22;38721;53.098;6.596;2023-08-01T09:45:12;17.90;99.90
52859;DHT22;38721;53.098;6.596;2023-08-01T09:47:39;17.80;99.90
52859;DHT22;38721;53.098;6.596;2023-08-01T09:50:05;17.80;99.90
52859;DHT22;38721;53.098;6.596;2023-08-01T09:52:31;17.70;99.90
52859;DHT22;38721;53.098;6.596;2023-08-01T09:54:56;17.80;99.90
52859;DHT22;38721;53.098;6.596;2023-08-01T09:57:22;17.80;99.90
52859;DHT22;38721;53.098;6.596;2023-08-01T09:59:49;17.90;99.90
52859;DHT22;38721;53.098;6.596;2023-08-01T10:02:16;17.90;99.90
52859;DHT22;38721;53.098;6.596;2023-08-01T10:04:44;18.00;99.90
52859;DHT22;38721;53.098;6.596;2023-08-01T10:07:11;17.90;99.90
52859;DHT22;38721;53.098;6.596;2023-08-01T10:09:40;17.90;99.90
52859;DHT22;38721;53.098;6.596;2023-08-01T10:12:07;17.90;99.90
52859;DHT22;38721;53.098;6.596;2023-08-01T10:14:33;17.50;99.90
52859;DHT22;38721;53.098;6.596;2023-08-01T10:16:59;17.30;99.90
52859;DHT22;38721;53.098;6.596;2023-08-01T10:19:26;17.30;99.90
52859;DHT22;38721;53.098;6.596;2023-08-01T10:21:53;17.20;99.90
52859;DHT22;38721;53.098;6.596;2023-08-01T10:24:20;17.10;99.90
52859;DHT22;38721;53.098;6.596;2023-08-01T10:26:46;16.80;99.90
52859;DHT22;38721;53.098;6.596;2023-08-01T10:29:12;16.90;99.90
52859;DHT22;38721;53.098;6.596;2023-08-01T10:31:38;17.10;99.90
52859;DHT22;38721;53.098;6.596;2023-08-01T10:34:05;17.40;99.90
52859;DHT22;38721;53.098;6.596;2023-08-01T10:36:31;17.50;99.90
52859;DHT22;38721;53.098;6.596;2023-08-01T10:39:00;17.70;99.90
52859;DHT22;38721;53.098;6.596;2023-08-01T10:41:34;17.90;99.90
52859;DHT22;38721;53.098;6.596;2023-08-01T10:44:11;18.20;99.90
52859;DHT22;38721;53.098;6.596;2023-08-01T10:46:57;18.90;99.90
52859;DHT22;38721;53.098;6.596;2023-08-01T10:49:33;19.40;99.90
52859;DHT22;38721;53.098;6.596;2023-08-01T10:51:58;19.50;99.90
52859;DHT22;38721;53.098;6.596;2023-08-01T10:54:25;19.00;99.90
52859;DHT22;38721;53.098;6.596;2023-08-01T10:56:53;18.90;99.90
52859;DHT22;38721;53.098;6.596;2023-08-01T10:59:20;18.30;99.90
52859;DHT22;38721;53.098;6.596;2023-08-01T11:01:57;17.90;99.90
52859;DHT22;38721;53.098;6.596;2023-08-01T11:04:23;17.40;99.90
52859;DHT22;38721;53.098;6.596;2023-08-01T11:06:51;17.30;99.90
52859;DHT22;38721;53.098;6.596;2023-08-01T11:09:23;17.60;99.90
52859;DHT22;38721;53.098;6.596;2023-08-01T11:11:56;18.00;99.90
52859;DHT22;38721;53.098;6.596;2023-08-01T11:14:24;18.50;99.90
52859;DHT22;38721;53.098;6.596;2023-08-01T11:16:50;18.80;99.90
52859;DHT22;38721;53.098;6.596;2023-08-01T11:19:19;19.30;99.90
52859;DHT22;38721;53.098;6.596;2023-08-01T11:21:49;19.50;99.90
52859;DHT22;38721;53.098;6.596;2023-08-01T11:24:16;19.50;99.90
52859;DHT22;38721;53.098;6.596;2023-08-01T11:26:43;19.70;99.90
52859;DHT22;38721;53.098;6.596;2023-08-01T11:29:12;19.10;99.90
52859;DHT22;38721;53.098;6.596;2023-08-01T11:31:39;19.60;99.90
52859;DHT22;38721;53.098;6.596;2023-08-01T11:34:07;19.80;99.90
52859;DHT22;38721;53.098;6.596;2023-08-01T11:36:38;20.30;99.90
52859;DHT22;38721;53.098;6.596;2023-08-01T11:39:04;20.40;99.90
52859;DHT22;38721;53.098;6.596;2023-08-01T11:41:30;20.90;99.90
52859;DHT22;38721;53.098;6.596;2023-08-01T11:44:01;20.60;99.90
52859;DHT22;38721;53.098;6.596;2023-08-01T11:46:32;20.50;99.90
52859;DHT22;38721;53.098;6.596;2023-08-01T11:48:58;20.00;99.90
52859;DHT22;38721;53.098;6.596;2023-08-01T11:51:25;19.90;99.90
52859;DHT22;38721;53.098;6.596;2023-08-01T11:54:01;20.30;99.90
52859;DHT22;38721;53.098;6.596;2023-08-01T11:56:27;20.10;99.90
52859;DHT22;38721;53.098;6.596;2023-08-01T11:58:53;20.20;99.90
52859;DHT22;38721;53.098;6.596;2023-08-01T12:01:18;20.80;99.90
52859;DHT22;38721;53.098;6.596;2023-08-01T12:03:48;20.20;99.90
52859;DHT22;38721;53.098;6.596;2023-08-01T12:06:15;20.10;99.90
52859;DHT22;38721;53.098;6.596;2023-08-01T12:08:45;19.60;99.90
52859;DHT22;38721;53.098;6.596;2023-08-01T12:14:08;19.00;99.90
52859;DHT22;38721;53.098;6.596;2023-08-01T12:16:33;18.90;99.90
52859;DHT22;38721;53.098;6.596;2023-08-01T12:18:59;19.00;99.90
52859;DHT22;38721;53.098;6.596;2023-08-01T12:21:25;18.80;99.90
52859;DHT22;38721;53.098;6.596;2023-08-01T12:23:50;18.70;99.90
52859;DHT22;38721;53.098;6.596;2023-08-01T12:26:16;18.60;99.90
52859;DHT22;38721;53.098;6.596;2023-08-01T12:28:41;18.80;99.90
52859;DHT22;38721;53.098;6.596;2023-08-01T12:31:07;19.50;99.90
52859;DHT22;38721;53.098;6.596;2023-08-01T12:33:33;19.30;99.90
52859;DHT22;38721;53.098;6.596;2023-08-01T12:35:59;19.10;99.90
52859;DHT22;38721;53.098;6.596;2023-08-01T12:38:26;18.90;99.90
52859;DHT22;38721;53.098;6.596;2023-08-01T12:40:52;19.50;99.90
52859;DHT22;38721;53.098;6.596;2023-08-01T12:43:17;19.70;99.90
52859;DHT22;38721;53.098;6.596;2023-08-01T12:45:43;20.00;99.90
52859;DHT22;38721;53.098;6.596;2023-08-01T12:48:09;19.60;99.90
52859;DHT22;38721;53.098;6.596;2023-08-01T12:50:35;19.60;99.90
52859;DHT22;38721;53.098;6.596;2023-08-01T12:53:00;19.20;99.90
52859;DHT22;38721;53.098;6.596;2023-08-01T12:55:26;19.10;99.90
52859;DHT22;38721;53.098;6.596;2023-08-01T12:57:52;18.90;99.90
52859;DHT22;38721;53.098;6.596;2023-08-01T13:00:20;19.00;99.90
52859;DHT22;38721;53.098;6.596;2023-08-01T13:02:46;19.20;99.90
52859;DHT22;38721;53.098;6.596;2023-08-01T13:05:12;19.10;99.90
52859;DHT22;38721;53.098;6.596;2023-08-01T13:07:38;18.90;99.90
52859;DHT22;38721;53.098;6.596;2023-08-01T13:10:04;18.80;99.90
52859;DHT22;38721;53.098;6.596;2023-08-01T13:12:30;18.80;99.90
52859;DHT22;38721;53.098;6.596;2023-08-01T13:14:55;19.30;99.90
52859;DHT22;38721;53.098;6.596;2023-08-01T13:17:21;19.40;99.90
52859;DHT22;38721;53.098;6.596;2023-08-01T13:19:46;19.20;99.90
52859;DHT22;38721;53.098;6.596;2023-08-01T13:22:12;19.10;99.90
52859;DHT22;38721;53.098;6.596;2023-08-01T13:24:38;18.80;99.90
52859;DHT22;38721;53.098;6.596;2023-08-01T13:27:04;18.70;99.90
52859;DHT22;38721;53.098;6.596;2023-08-01T13:29:30;18.40;99.90
52859;DHT22;38721;53.098;6.596;2023-08-01T13:31:56;18.50;99.90
52859;DHT22;38721;53.098;6.596;2023-08-01T13:34:21;18.70;99.90
52859;DHT22;38721;53.098;6.596;2023-08-01T13:36:47;19.90;99.90
52859;DHT22;38721;53.098;6.596;2023-08-01T13:39:13;19.50;99.90
52859;DHT22;38721;53.098;6.596;2023-08-01T13:41:38;19.70;99.90
52859;DHT22;38721;53.098;6.596;2023-08-01T13:44:04;19.70;99.90
52859;DHT22;38721;53.098;6.596;2023-08-01T13:46:30;20.10;99.90
52859;DHT22;38721;53.098;6.596;2023-08-01T13:48:56;20.40;99.90
52859;DHT22;38721;53.098;6.596;2023-08-01T13:51:21;20.00;99.90
52859;DHT22;38721;53.098;6.596;2023-08-01T13:53:47;20.00;99.90
52859;DHT22;38721;53.098;6.596;2023-08-01T13:56:13;19.60;99.90
52859;DHT22;38721;53.098;6.596;2023-08-01T13:58:39;19.50;99.90
52859;DHT22;38721;53.098;6.596;2023-08-01T14:01:07;19.90;99.90
52859;DHT22;38721;53.098;6.596;2023-08-01T14:03:36;20.00;99.90
52859;DHT22;38721;53.098;6.596;2023-08-01T14:06:06;20.00;99.90
52859;DHT22;38721;53.098;6.596;2023-08-01T14:08:32;20.10;99.90
52859;DHT22;38721;53.098;6.596;2023-08-01T14:10:58;20.40;99.90
52859;DHT22;38721;53.098;6.596;2023-08-01T14:13:24;20.50;99.90
52859;DHT22;38721;53.098;6.596;2023-08-01T14:15:49;20.50;99.90
52859;DHT22;38721;53.098;6.596;2023-08-01T14:18:15;20.60;99.90
52859;DHT22;38721;53.098;6.596;2023-08-01T14:20:41;20.90;99.90
52859;DHT22;38721;53.098;6.596;2023-08-01T14:23:06;21.40;99.90
52859;DHT22;38721;53.098;6.596;2023-08-01T14:25:32;22.10;99.90
52859;DHT22;38721;53.098;6.596;2023-08-01T14:27:58;22.40;99.90
52859;DHT22;38721;53.098;6.596;2023-08-01T14:30:24;21.70;99.90
52859;DHT22;38721;53.098;6.596;2023-08-01T14:32:58;20.50;99.90
52859;DHT22;38721;53.098;6.596;2023-08-01T14:35:24;20.20;99.90
52859;DHT22;38721;53.098;6.596;2023-08-01T14:37:50;19.70;99.90
52859;DHT22;38721;53.098;6.596;2023-08-01T14:40:15;19.10;99.90
52859;DHT22;38721;53.098;6.596;2023-08-01T14:42:41;18.50;99.90
52859;DHT22;38721;53.098;6.596;2023-08-01T14:45:07;18.30;99.90
52859;DHT22;38721;53.098;6.596;2023-08-01T14:47:33;18.20;99.90
52859;DHT22;38721;53.098;6.596;2023-08-01T14:49:59;18.40;99.90
52859;DHT22;38721;53.098;6.596;2023-08-01T14:52:25;18.30;99.90
52859;DHT22;38721;53.098;6.596;2023-08-01T14:54:51;18.50;99.90
52859;DHT22;38721;53.098;6.596;2023-08-01T14:57:16;18.80;99.90
52859;DHT22;38721;53.098;6.596;2023-08-01T14:59:42;18.80;99.90
52859;DHT22;38721;53.098;6.596;2023-08-01T15:02:08;18.70;99.90
52859;DHT22;38721;53.098;6.596;2023-08-01T15:04:33;18.90;99.90
52859;DHT22;38721;53.098;6.596;2023-08-01T15:07:01;18.60;99.90
52859;DHT22;38721;53.098;6.596;2023-08-01T15:09:26;18.60;99.90
52859;DHT22;38721;53.098;6.596;2023-08-01T15:11:52;18.40;99.90
52859;DHT22;38721;53.098;6.596;2023-08-01T15:14:18;18.20;99.90
52859;DHT22;38721;53.098;6.596;2023-08-01T15:16:43;18.20;99.90
52859;DHT22;38721;53.098;6.596;2023-08-01T15:19:09;18.30;99.90
52859;DHT22;38721;53.098;6.596;2023-08-01T15:21:34;18.20;99.90
52859;DHT22;38721;53.098;6.596;2023-08-01T15:24:00;18.20;99.90
52859;DHT22;38721;53.098;6.596;2023-08-01T15:26:26;17.90;99.90
52859;DHT22;38721;53.098;6.596;2023-08-01T15:28:51;17.80;99.90